sensor_id;sensor_type;location;lat;lon;timestamp;pressure;altitude;pressure_sealevel;temperature;humidity
75247;BME280;63844;50.042;19.224;2022-10-01T00:00:55;98848.89;;;11.03;87.99
75247;BME280;63844;50.042;19.224;2022-10-01T00:03:35;98846.02;;;11.03;87.88
75247;BME280;63844;50.042;19.224;2022-10-01T00:06:05;98841.94;;;11.06;87.60
75247;BME280;63844;50.042;19.224;2022-10-01T00:08:35;98832.20;;;11.08;87.81
75247;BME280;63844;50.042;19.224;2022-10-01T00:11:10;98823.89;;;11.10;88.01
75247;BME280;63844;50.042;19.224;2022-10-01T00:13:38;98827.16;;;11.17;88.35
75247;BME280;63844;50.042;19.224;2022-10-01T00:16:06;98830.81;;;11.18;87.87
75247;BME280;63844;50.042;19.224;2022-10-01T00:18:35;98833.29;;;11.10;87.85
75247;BME280;63844;50.042;19.224;2022-10-01T00:21:07;98835.08;;;11.10;87.78
75247;BME280;63844;50.042;19.224;2022-10-01T00:23:35;98834.80;;;11.09;87.43
75247;BME280;63844;50.042;19.224;2022-10-01T00:26:16;98833.52;;;11.05;87.48
75247;BME280;63844;50.042;19.224;2022-10-01T00:28:45;98828.03;;;11.02;87.56
75247;BME280;63844;50.042;19.224;2022-10-01T00:31:13;98835.20;;;11.03;87.33
75247;BME280;63844;50.042;19.224;2022-10-01T00:33:40;98839.58;;;11.07;87.27
75247;BME280;63844;50.042;19.224;2022-10-01T00:36:09;98844.25;;;11.11;87.65
75247;BME280;63844;50.042;19.224;2022-10-01T00:38:38;98848.45;;;11.09;87.91
75247;BME280;63844;50.042;19.224;2022-10-01T00:41:08;98844.23;;;11.09;87.62
75247;BME280;63844;50.042;19.224;2022-10-01T00:43:40;98840.23;;;11.05;87.84
75247;BME280;63844;50.042;19.224;2022-10-01T00:46:08;98836.97;;;11.04;87.65
75247;BME280;63844;50.042;19.224;2022-10-01T00:48:51;98835.25;;;11.03;87.69
75247;BME280;63844;50.042;19.224;2022-10-01T00:51:25;98836.44;;;10.98;87.27
75247;BME280;63844;50.042;19.224;2022-10-01T00:53:59;98845.21;;;10.89;87.11
75247;BME280;63844;50.042;19.224;2022-10-01T00:56:28;98850.52;;;10.82;87.34
75247;BME280;63844;50.042;19.224;2022-10-01T00:58:56;98847.85;;;10.74;88.16
75247;BME280;63844;50.042;19.224;2022-10-01T01:01:22;98840.17;;;10.70;87.02
75247;BME280;63844;50.042;19.224;2022-10-01T01:03:50;98838.21;;;10.65;87.16
75247;BME280;63844;50.042;19.224;2022-10-01T01:06:16;98842.69;;;10.56;88.00
75247;BME280;63844;50.042;19.224;2022-10-01T01:08:43;98839.56;;;10.53;87.80
75247;BME280;63844;50.042;19.224;2022-10-01T01:11:34;98836.74;;;10.50;87.64
75247;BME280;63844;50.042;19.224;2022-10-01T01:14:28;98842.75;;;10.48;87.51
75247;BME280;63844;50.042;19.224;2022-10-01T01:17:05;98845.41;;;10.40;88.21
75247;BME280;63844;50.042;19.224;2022-10-01T01:20:04;98848.07;;;10.40;87.62
75247;BME280;63844;50.042;19.224;2022-10-01T01:22:39;98851.73;;;10.35;88.01
75247;BME280;63844;50.042;19.224;2022-10-01T01:25:14;98849.08;;;10.32;88.89
75247;BME280;63844;50.042;19.224;2022-10-01T01:28:01;98850.21;;;10.32;88.34
75247;BME280;63844;50.042;19.224;2022-10-01T01:30:31;98850.27;;;10.34;87.52
75247;BME280;63844;50.042;19.224;2022-10-01T01:33:09;98847.61;;;10.33;87.53
75247;BME280;63844;50.042;19.224;2022-10-01T01:35:48;98845.94;;;10.35;87.87
75247;BME280;63844;50.042;19.224;2022-10-01T01:38:21;98847.27;;;10.36;87.90
75247;BME280;63844;50.042;19.224;2022-10-01T01:40:55;98848.68;;;10.39;88.39
75247;BME280;63844;50.042;19.224;2022-10-01T01:43:28;98843.99;;;10.40;88.89
75247;BME280;63844;50.042;19.224;2022-10-01T01:45:57;98842.59;;;10.42;88.30
75247;BME280;63844;50.042;19.224;2022-10-01T01:48:27;98841.08;;;10.49;87.66
75247;BME280;63844;50.042;19.224;2022-10-01T01:51:09;98843.84;;;10.47;87.75
75247;BME280;63844;50.042;19.224;2022-10-01T01:53:37;98851.89;;;10.46;87.58
75247;BME280;63844;50.042;19.224;2022-10-01T01:56:05;98855.12;;;10.43;88.43
75247;BME280;63844;50.042;19.224;2022-10-01T01:58:33;98859.86;;;10.46;88.23
75247;BME280;63844;50.042;19.224;2022-10-01T02:01:01;98859.05;;;10.50;88.17
75247;BME280;63844;50.042;19.224;2022-10-01T02:03:28;98863.61;;;10.56;87.93
75247;BME280;63844;50.042;19.224;2022-10-01T02:06:13;98862.48;;;10.60;88.79
75247;BME280;63844;50.042;19.224;2022-10-01T02:08:50;98865.10;;;10.63;88.79
75247;BME280;63844;50.042;19.224;2022-10-01T02:11:26;98873.60;;;10.68;88.96
75247;BME280;63844;50.042;19.224;2022-10-01T02:14:03;98875.55;;;10.68;88.87
75247;BME280;63844;50.042;19.224;2022-10-01T02:16:41;98872.25;;;10.64;89.12
75247;BME280;63844;50.042;19.224;2022-10-01T02:22:12;98870.47;;;10.67;88.31
75247;BME280;63844;50.042;19.224;2022-10-01T02:24:46;98868.06;;;10.69;88.95
75247;BME280;63844;50.042;19.224;2022-10-01T02:27:22;98869.73;;;10.65;88.80
75247;BME280;63844;50.042;19.224;2022-10-01T02:29:52;98871.39;;;10.62;88.78
75247;BME280;63844;50.042;19.224;2022-10-01T02:32:21;98866.39;;;10.62;88.82
75247;BME280;63844;50.042;19.224;2022-10-01T02:34:49;98863.42;;;10.56;89.00
75247;BME280;63844;50.042;19.224;2022-10-01T02:37:21;98861.62;;;10.54;88.86
75247;BME280;63844;50.042;19.224;2022-10-01T02:39:49;98856.77;;;10.52;89.41
75247;BME280;63844;50.042;19.224;2022-10-01T02:42:19;98860.66;;;10.52;89.29
75247;BME280;63844;50.042;19.224;2022-10-01T02:44:48;98866.65;;;10.53;89.34
75247;BME280;63844;50.042;19.224;2022-10-01T02:49:48;98871.14;;;10.57;89.18
75247;BME280;63844;50.042;19.224;2022-10-01T02:52:33;98874.59;;;10.48;89.51
75247;BME280;63844;50.042;19.224;2022-10-01T02:55:04;98881.20;;;10.47;89.08
75247;BME280;63844;50.042;19.224;2022-10-01T02:57:32;98886.77;;;10.43;89.25
75247;BME280;63844;50.042;19.224;2022-10-01T03:00:22;98882.12;;;10.39;89.24
75247;BME280;63844;50.042;19.224;2022-10-01T03:02:48;98876.77;;;10.34;89.68
75247;BME280;63844;50.042;19.224;2022-10-01T03:05:15;98870.71;;;10.35;89.46
75247;BME280;63844;50.042;19.224;2022-10-01T03:07:42;98873.55;;;10.32;89.77
75247;BME280;63844;50.042;19.224;2022-10-01T03:10:10;98877.56;;;10.27;89.96
75247;BME280;63844;50.042;19.224;2022-10-01T03:12:37;98869.75;;;10.28;89.39
75247;BME280;63844;50.042;19.224;2022-10-01T03:15:06;98867.08;;;10.25;89.17
75247;BME280;63844;50.042;19.224;2022-10-01T03:17:32;98868.60;;;10.23;89.63
75247;BME280;63844;50.042;19.224;2022-10-01T03:20:02;98863.33;;;10.15;90.10
75247;BME280;63844;50.042;19.224;2022-10-01T03:22:28;98865.52;;;10.11;90.50
75247;BME280;63844;50.042;19.224;2022-10-01T03:24:55;98863.26;;;10.13;90.16
75247;BME280;63844;50.042;19.224;2022-10-01T03:27:21;98862.11;;;10.20;89.58
75247;BME280;63844;50.042;19.224;2022-10-01T03:29:48;98858.83;;;10.22;89.38
75247;BME280;63844;50.042;19.224;2022-10-01T03:32:15;98857.58;;;10.19;89.25
75247;BME280;63844;50.042;19.224;2022-10-01T03:34:42;98859.46;;;10.23;89.39
75247;BME280;63844;50.042;19.224;2022-10-01T03:37:09;98861.61;;;10.22;89.66
75247;BME280;63844;50.042;19.224;2022-10-01T03:39:35;98861.18;;;10.23;88.84
75247;BME280;63844;50.042;19.224;2022-10-01T03:42:02;98855.73;;;10.29;88.50
75247;BME280;63844;50.042;19.224;2022-10-01T03:44:31;98852.60;;;10.30;88.54
75247;BME280;63844;50.042;19.224;2022-10-01T03:46:58;98857.19;;;10.31;88.84
75247;BME280;63844;50.042;19.224;2022-10-01T03:49:25;98849.66;;;10.35;89.02
75247;BME280;63844;50.042;19.224;2022-10-01T03:51:51;98840.79;;;10.38;89.08
75247;BME280;63844;50.042;19.224;2022-10-01T03:54:17;98842.61;;;10.40;89.29
75247;BME280;63844;50.042;19.224;2022-10-01T03:56:45;98836.56;;;10.42;89.10
75247;BME280;63844;50.042;19.224;2022-10-01T03:59:11;98829.20;;;10.42;89.29
75247;BME280;63844;50.042;19.224;2022-10-01T04:01:38;98833.29;;;10.44;88.92
75247;BME280;63844;50.042;19.224;2022-10-01T04:04:04;98840.96;;;10.43;88.71
75247;BME280;63844;50.042;19.224;2022-10-01T04:06:31;98835.91;;;10.42;88.80
75247;BME280;63844;50.042;19.224;2022-10-01T04:08:57;98836.43;;;10.44;89.05
75247;BME280;63844;50.042;19.224;2022-10-01T04:11:24;98832.04;;;10.44;89.12
75247;BME280;63844;50.042;19.224;2022-10-01T04:13:51;98831.71;;;10.44;89.27
75247;BME280;63844;50.042;19.224;2022-10-01T04:16:17;98828.20;;;10.46;89.14
75247;BME280;63844;50.042;19.224;2022-10-01T04:18:44;98829.12;;;10.45;89.13
75247;BME280;63844;50.042;19.224;2022-10-01T04:21:10;98824.16;;;10.45;89.31
75247;BME280;63844;50.042;19.224;2022-10-01T04:23:37;98822.73;;;10.43;88.96
75247;BME280;63844;50.042;19.224;2022-10-01T04:26:04;98820.89;;;10.42;88.44
75247;BME280;63844;50.042;19.224;2022-10-01T04:28:31;98821.88;;;10.40;88.04
75247;BME280;63844;50.042;19.224;2022-10-01T04:30:57;98821.27;;;10.36;87.89
75247;BME280;63844;50.042;19.224;2022-10-01T04:33:42;98825.05;;;10.30;89.64
75247;BME280;63844;50.042;19.224;2022-10-01T04:36:08;98825.67;;;10.28;88.92
75247;BME280;63844;50.042;19.224;2022-10-01T04:38:34;98818.52;;;10.29;89.03
75247;BME280;63844;50.042;19.224;2022-10-01T04:41:01;98817.73;;;10.33;88.80
75247;BME280;63844;50.042;19.224;2022-10-01T04:43:27;98809.97;;;10.36;88.75
75247;BME280;63844;50.042;19.224;2022-10-01T04:45:53;98809.06;;;10.41;88.87
75247;BME280;63844;50.042;19.224;2022-10-01T04:48:20;98809.17;;;10.42;89.11
75247;BME280;63844;50.042;19.224;2022-10-01T04:50:46;98803.95;;;10.41;88.99
75247;BME280;63844;50.042;19.224;2022-10-01T04:53:13;98799.81;;;10.44;89.19
75247;BME280;63844;50.042;19.224;2022-10-01T04:55:39;98805.36;;;10.46;89.12
75247;BME280;63844;50.042;19.224;2022-10-01T04:58:05;98807.69;;;10.43;89.08
75247;BME280;63844;50.042;19.224;2022-10-01T05:00:32;98810.12;;;10.41;88.58
75247;BME280;63844;50.042;19.224;2022-10-01T05:02:58;98811.77;;;10.41;89.14
75247;BME280;63844;50.042;19.224;2022-10-01T05:05:24;98814.20;;;10.39;89.44
75247;BME280;63844;50.042;19.224;2022-10-01T05:07:54;98819.17;;;10.43;88.90
75247;BME280;63844;50.042;19.224;2022-10-01T05:10:21;98818.39;;;10.44;88.86
75247;BME280;63844;50.042;19.224;2022-10-01T05:12:48;98818.92;;;10.47;89.38
75247;BME280;63844;50.042;19.224;2022-10-01T05:15:17;98815.82;;;10.51;89.36
75247;BME280;63844;50.042;19.224;2022-10-01T05:17:44;98812.38;;;10.57;89.35
75247;BME280;63844;50.042;19.224;2022-10-01T05:20:18;98808.04;;;10.59;89.22
75247;BME280;63844;50.042;19.224;2022-10-01T05:22:45;98813.36;;;10.61;89.05
75247;BME280;63844;50.042;19.224;2022-10-01T05:25:12;98813.54;;;10.64;89.24
75247;BME280;63844;50.042;19.224;2022-10-01T05:27:38;98815.13;;;10.66;89.04
75247;BME280;63844;50.042;19.224;2022-10-01T05:30:10;98817.16;;;10.65;88.84
75247;BME280;63844;50.042;19.224;2022-10-01T05:32:37;98817.36;;;10.67;89.22
75247;BME280;63844;50.042;19.224;2022-10-01T05:35:05;98820.30;;;10.73;88.92
75247;BME280;63844;50.042;19.224;2022-10-01T05:37:33;98819.73;;;10.76;89.28
75247;BME280;63844;50.042;19.224;2022-10-01T05:39:59;98822.05;;;10.79;89.39
75247;BME280;63844;50.042;19.224;2022-10-01T05:42:25;98816.21;;;10.84;89.45
75247;BME280;63844;50.042;19.224;2022-10-01T05:44:52;98817.49;;;10.86;89.27
75247;BME280;63844;50.042;19.224;2022-10-01T05:47:18;98810.27;;;10.88;89.40
75247;BME280;63844;50.042;19.224;2022-10-01T05:49:45;98813.35;;;10.92;88.74
75247;BME280;63844;50.042;19.224;2022-10-01T05:52:13;98812.98;;;10.94;88.90
75247;BME280;63844;50.042;19.224;2022-10-01T05:54:40;98808.71;;;10.97;88.70
75247;BME280;63844;50.042;19.224;2022-10-01T05:57:07;98806.25;;;10.97;89.00
75247;BME280;63844;50.042;19.224;2022-10-01T05:59:33;98811.22;;;11.02;88.60
75247;BME280;63844;50.042;19.224;2022-10-01T06:02:00;98809.37;;;11.03;88.87
75247;BME280;63844;50.042;19.224;2022-10-01T06:04:26;98808.64;;;11.09;88.94
75247;BME280;63844;50.042;19.224;2022-10-01T06:06:53;98805.42;;;11.16;88.57
75247;BME280;63844;50.042;19.224;2022-10-01T06:09:19;98802.04;;;11.19;88.62
75247;BME280;63844;50.042;19.224;2022-10-01T06:11:45;98800.11;;;11.24;88.77
75247;BME280;63844;50.042;19.224;2022-10-01T06:14:14;98800.68;;;11.28;88.51
75247;BME280;63844;50.042;19.224;2022-10-01T06:16:41;98799.98;;;11.28;88.61
75247;BME280;63844;50.042;19.224;2022-10-01T06:19:07;98799.84;;;11.28;88.64
75247;BME280;63844;50.042;19.224;2022-10-01T06:21:33;98801.82;;;11.32;88.03
75247;BME280;63844;50.042;19.224;2022-10-01T06:24:00;98806.57;;;11.30;87.81
75247;BME280;63844;50.042;19.224;2022-10-01T06:26:26;98804.81;;;11.27;88.51
75247;BME280;63844;50.042;19.224;2022-10-01T06:28:53;98802.67;;;11.32;88.13
75247;BME280;63844;50.042;19.224;2022-10-01T06:31:19;98805.23;;;11.31;88.32
75247;BME280;63844;50.042;19.224;2022-10-01T06:33:46;98807.25;;;11.37;88.21
75247;BME280;63844;50.042;19.224;2022-10-01T06:36:12;98806.52;;;11.45;88.25
75247;BME280;63844;50.042;19.224;2022-10-01T06:38:39;98801.67;;;11.46;88.26
75247;BME280;63844;50.042;19.224;2022-10-01T06:41:05;98799.07;;;11.48;88.23
75247;BME280;63844;50.042;19.224;2022-10-01T06:43:32;98804.16;;;11.49;88.36
75247;BME280;63844;50.042;19.224;2022-10-01T06:46:03;98802.29;;;11.55;88.40
75247;BME280;63844;50.042;19.224;2022-10-01T06:48:30;98805.23;;;11.60;88.15
75247;BME280;63844;50.042;19.224;2022-10-01T06:50:58;98802.36;;;11.66;87.73
75247;BME280;63844;50.042;19.224;2022-10-01T06:53:26;98800.18;;;11.66;88.00
75247;BME280;63844;50.042;19.224;2022-10-01T06:55:53;98794.54;;;11.71;87.46
75247;BME280;63844;50.042;19.224;2022-10-01T06:58:22;98795.11;;;11.77;87.75
75247;BME280;63844;50.042;19.224;2022-10-01T07:00:57;98794.95;;;11.82;87.65
75247;BME280;63844;50.042;19.224;2022-10-01T07:03:24;98790.67;;;11.85;87.83
75247;BME280;63844;50.042;19.224;2022-10-01T07:05:50;98784.18;;;11.89;88.08
75247;BME280;63844;50.042;19.224;2022-10-01T07:08:17;98780.81;;;11.94;87.96
75247;BME280;63844;50.042;19.224;2022-10-01T07:10:44;98781.81;;;11.99;87.85
75247;BME280;63844;50.042;19.224;2022-10-01T07:13:11;98783.29;;;12.07;87.61
75247;BME280;63844;50.042;19.224;2022-10-01T07:15:39;98781.41;;;12.07;87.38
75247;BME280;63844;50.042;19.224;2022-10-01T07:18:06;98777.19;;;12.11;87.27
75247;BME280;63844;50.042;19.224;2022-10-01T07:20:35;98773.67;;;12.15;86.91
75247;BME280;63844;50.042;19.224;2022-10-01T07:23:05;98775.41;;;12.18;87.27
75247;BME280;63844;50.042;19.224;2022-10-01T07:25:32;98775.45;;;12.18;87.45
75247;BME280;63844;50.042;19.224;2022-10-01T07:28:02;98776.88;;;12.22;87.53
75247;BME280;63844;50.042;19.224;2022-10-01T07:30:30;98774.16;;;12.30;87.44
75247;BME280;63844;50.042;19.224;2022-10-01T07:32:56;98773.14;;;12.34;87.11
75247;BME280;63844;50.042;19.224;2022-10-01T07:35:23;98767.39;;;12.28;87.12
75247;BME280;63844;50.042;19.224;2022-10-01T07:37:50;98770.19;;;12.26;87.47
75247;BME280;63844;50.042;19.224;2022-10-01T07:40:18;98767.80;;;12.29;87.06
75247;BME280;63844;50.042;19.224;2022-10-01T07:42:54;98768.95;;;12.35;87.18
75247;BME280;63844;50.042;19.224;2022-10-01T07:45:22;98766.81;;;12.38;86.98
75247;BME280;63844;50.042;19.224;2022-10-01T07:47:56;98763.70;;;12.46;86.62
75247;BME280;63844;50.042;19.224;2022-10-01T07:50:24;98763.29;;;12.44;86.89
75247;BME280;63844;50.042;19.224;2022-10-01T07:52:52;98765.23;;;12.51;87.17
75247;BME280;63844;50.042;19.224;2022-10-01T07:55:20;98763.88;;;12.59;86.88
75247;BME280;63844;50.042;19.224;2022-10-01T07:57:51;98767.80;;;12.62;86.58
75247;BME280;63844;50.042;19.224;2022-10-01T08:00:18;98763.42;;;12.70;86.89
75247;BME280;63844;50.042;19.224;2022-10-01T08:02:46;98761.27;;;12.70;86.32
75247;BME280;63844;50.042;19.224;2022-10-01T08:05:13;98757.04;;;12.76;86.47
75247;BME280;63844;50.042;19.224;2022-10-01T08:07:43;98755.95;;;12.81;86.27
75247;BME280;63844;50.042;19.224;2022-10-01T08:10:10;98752.73;;;12.91;86.22
75247;BME280;63844;50.042;19.224;2022-10-01T08:12:36;98754.80;;;12.98;85.82
75247;BME280;63844;50.042;19.224;2022-10-01T08:15:03;98755.67;;;13.07;85.59
75247;BME280;63844;50.042;19.224;2022-10-01T08:17:32;98753.36;;;13.12;85.69
75247;BME280;63844;50.042;19.224;2022-10-01T08:19:59;98745.16;;;13.23;85.65
75247;BME280;63844;50.042;19.224;2022-10-01T08:22:26;98746.19;;;13.31;85.84
75247;BME280;63844;50.042;19.224;2022-10-01T08:24:52;98745.21;;;13.32;85.53
75247;BME280;63844;50.042;19.224;2022-10-01T08:27:19;98747.35;;;13.32;85.17
75247;BME280;63844;50.042;19.224;2022-10-01T08:29:45;98748.95;;;13.34;84.96
75247;BME280;63844;50.042;19.224;2022-10-01T08:32:11;98750.08;;;13.37;84.93
75247;BME280;63844;50.042;19.224;2022-10-01T08:34:38;98748.64;;;13.33;84.70
75247;BME280;63844;50.042;19.224;2022-10-01T08:37:04;98742.20;;;13.31;84.77
75247;BME280;63844;50.042;19.224;2022-10-01T08:39:30;98739.52;;;13.38;84.56
75247;BME280;63844;50.042;19.224;2022-10-01T08:42:10;98736.39;;;13.41;84.37
75247;BME280;63844;50.042;19.224;2022-10-01T08:44:43;98735.02;;;13.48;84.15
75247;BME280;63844;50.042;19.224;2022-10-01T08:47:15;98733.80;;;13.49;84.15
75247;BME280;63844;50.042;19.224;2022-10-01T08:49:47;98733.90;;;13.40;83.51
75247;BME280;63844;50.042;19.224;2022-10-01T08:52:33;98729.11;;;13.33;84.01
75247;BME280;63844;50.042;19.224;2022-10-01T08:55:18;98725.27;;;13.32;84.14
75247;BME280;63844;50.042;19.224;2022-10-01T08:57:54;98716.06;;;13.36;83.99
75247;BME280;63844;50.042;19.224;2022-10-01T09:00:22;98708.25;;;13.44;84.28
75247;BME280;63844;50.042;19.224;2022-10-01T09:02:48;98706.14;;;13.48;84.26
75247;BME280;63844;50.042;19.224;2022-10-01T09:05:26;98705.48;;;13.58;84.51
75247;BME280;63844;50.042;19.224;2022-10-01T09:08:08;98702.92;;;13.70;84.63
75247;BME280;63844;50.042;19.224;2022-10-01T09:10:46;98696.71;;;13.85;84.40
75247;BME280;63844;50.042;19.224;2022-10-01T09:16:40;98705.42;;;14.00;83.60
75247;BME280;63844;50.042;19.224;2022-10-01T09:22:06;98708.55;;;13.90;83.52
75247;BME280;63844;50.042;19.224;2022-10-01T09:24:43;98704.31;;;13.89;82.97
75247;BME280;63844;50.042;19.224;2022-10-01T09:27:17;98703.86;;;13.80;83.33
75247;BME280;63844;50.042;19.224;2022-10-01T09:30:03;98707.98;;;13.84;83.29
75247;BME280;63844;50.042;19.224;2022-10-01T09:32:51;98704.92;;;13.82;82.90
75247;BME280;63844;50.042;19.224;2022-10-01T09:37:55;98709.80;;;13.54;83.51
75247;BME280;63844;50.042;19.224;2022-10-01T09:40:53;98709.14;;;13.51;83.09
75247;BME280;63844;50.042;19.224;2022-10-01T09:43:26;98708.83;;;13.33;84.08
75247;BME280;63844;50.042;19.224;2022-10-01T09:45:54;98704.35;;;13.09;81.69
75247;BME280;63844;50.042;19.224;2022-10-01T09:51:32;98705.36;;;13.32;82.79
75247;BME280;63844;50.042;19.224;2022-10-01T09:54:11;98705.65;;;13.35;82.76
75247;BME280;63844;50.042;19.224;2022-10-01T09:56:43;98705.85;;;13.23;83.63
75247;BME280;63844;50.042;19.224;2022-10-01T09:59:21;98703.95;;;13.25;83.78
75247;BME280;63844;50.042;19.224;2022-10-01T10:01:52;98699.48;;;13.34;83.96
75247;BME280;63844;50.042;19.224;2022-10-01T10:04:21;98697.51;;;13.43;83.87
75247;BME280;63844;50.042;19.224;2022-10-01T10:07:00;98688.91;;;13.53;83.48
75247;BME280;63844;50.042;19.224;2022-10-01T10:09:32;98689.42;;;13.61;83.33
75247;BME280;63844;50.042;19.224;2022-10-01T10:12:00;98689.07;;;13.70;83.35
75247;BME280;63844;50.042;19.224;2022-10-01T10:14:30;98689.60;;;13.66;82.56
75247;BME280;63844;50.042;19.224;2022-10-01T10:17:04;98685.40;;;13.67;82.89
75247;BME280;63844;50.042;19.224;2022-10-01T10:19:31;98676.27;;;13.67;83.10
75247;BME280;63844;50.042;19.224;2022-10-01T10:22:20;98672.45;;;13.66;82.79
75247;BME280;63844;50.042;19.224;2022-10-01T10:24:48;98667.15;;;13.72;82.42
75247;BME280;63844;50.042;19.224;2022-10-01T10:27:24;98663.88;;;13.82;82.66
75247;BME280;63844;50.042;19.224;2022-10-01T10:30:14;98661.48;;;13.93;82.69
75247;BME280;63844;50.042;19.224;2022-10-01T10:32:42;98654.84;;;13.94;82.54
75247;BME280;63844;50.042;19.224;2022-10-01T10:35:12;98649.64;;;13.94;82.60
75247;BME280;63844;50.042;19.224;2022-10-01T10:37:46;98646.15;;;14.04;82.55
75247;BME280;63844;50.042;19.224;2022-10-01T10:40:20;98644.15;;;14.06;81.78
75247;BME280;63844;50.042;19.224;2022-10-01T10:42:48;98635.92;;;14.03;81.93
75247;BME280;63844;50.042;19.224;2022-10-01T10:45:18;98635.52;;;14.05;82.16
75247;BME280;63844;50.042;19.224;2022-10-01T10:47:49;98625.70;;;14.04;81.45
75247;BME280;63844;50.042;19.224;2022-10-01T10:50:32;98623.14;;;13.96;81.47
75247;BME280;63844;50.042;19.224;2022-10-01T10:55:58;98611.95;;;14.00;82.26
75247;BME280;63844;50.042;19.224;2022-10-01T10:58:28;98597.05;;;14.00;82.06
75247;BME280;63844;50.042;19.224;2022-10-01T11:01:13;98588.41;;;14.09;82.10
75247;BME280;63844;50.042;19.224;2022-10-01T11:03:48;98578.27;;;14.17;82.08
75247;BME280;63844;50.042;19.224;2022-10-01T11:06:15;98578.05;;;14.22;81.88
75247;BME280;63844;50.042;19.224;2022-10-01T11:08:45;98576.18;;;14.14;81.74
75247;BME280;63844;50.042;19.224;2022-10-01T11:16:34;98566.34;;;14.05;81.93
75247;BME280;63844;50.042;19.224;2022-10-01T11:25:21;98551.34;;;14.11;82.15
75247;BME280;63844;50.042;19.224;2022-10-01T11:28:12;98544.77;;;14.15;81.76
75247;BME280;63844;50.042;19.224;2022-10-01T11:30:54;98543.11;;;14.22;81.31
75247;BME280;63844;50.042;19.224;2022-10-01T11:36:41;98541.19;;;14.20;80.38
75247;BME280;63844;50.042;19.224;2022-10-01T11:39:13;98535.86;;;14.22;80.43
75247;BME280;63844;50.042;19.224;2022-10-01T11:41:49;98536.55;;;14.22;79.89
75247;BME280;63844;50.042;19.224;2022-10-01T11:44:20;98530.09;;;14.14;79.90
75247;BME280;63844;50.042;19.224;2022-10-01T11:47:06;98520.11;;;14.19;79.37
75247;BME280;63844;50.042;19.224;2022-10-01T11:49:49;98511.48;;;14.34;79.11
75247;BME280;63844;50.042;19.224;2022-10-01T11:55:11;98509.98;;;14.43;79.74
75247;BME280;63844;50.042;19.224;2022-10-01T11:58:05;98511.38;;;14.35;79.15
75247;BME280;63844;50.042;19.224;2022-10-01T12:01:02;98508.55;;;14.42;79.79
75247;BME280;63844;50.042;19.224;2022-10-01T12:03:41;98506.20;;;14.43;79.66
75247;BME280;63844;50.042;19.224;2022-10-01T12:06:12;98502.32;;;14.43;79.93
75247;BME280;63844;50.042;19.224;2022-10-01T12:08:45;98496.05;;;14.35;79.94
75247;BME280;63844;50.042;19.224;2022-10-01T12:13:56;98489.31;;;14.36;80.05
75247;BME280;63844;50.042;19.224;2022-10-01T12:16:36;98488.31;;;14.40;80.34
75247;BME280;63844;50.042;19.224;2022-10-01T12:19:43;98487.89;;;14.41;80.63
75247;BME280;63844;50.042;19.224;2022-10-01T12:22:18;98484.38;;;14.38;80.62
75247;BME280;63844;50.042;19.224;2022-10-01T12:24:47;98476.40;;;14.34;80.39
75247;BME280;63844;50.042;19.224;2022-10-01T12:30:11;98472.39;;;14.23;80.51
75247;BME280;63844;50.042;19.224;2022-10-01T12:38:51;98464.01;;;14.31;79.95
75247;BME280;63844;50.042;19.224;2022-10-01T12:44:28;98457.47;;;14.21;80.64
75247;BME280;63844;50.042;19.224;2022-10-01T12:50:09;98453.59;;;14.26;80.86
75247;BME280;63844;50.042;19.224;2022-10-01T12:58:13;98446.34;;;14.27;80.94
75247;BME280;63844;50.042;19.224;2022-10-01T13:00:49;98446.22;;;14.31;80.56
75247;BME280;63844;50.042;19.224;2022-10-01T13:14:48;98425.16;;;14.39;80.35
75247;BME280;63844;50.042;19.224;2022-10-01T13:17:36;98419.91;;;14.38;79.79
75247;BME280;63844;50.042;19.224;2022-10-01T13:20:41;98420.83;;;14.36;79.96
75247;BME280;63844;50.042;19.224;2022-10-01T13:23:19;98420.27;;;14.38;80.01
75247;BME280;63844;50.042;19.224;2022-10-01T13:26:00;98419.69;;;14.43;79.50
75247;BME280;63844;50.042;19.224;2022-10-01T13:28:42;98417.35;;;14.37;79.34
75247;BME280;63844;50.042;19.224;2022-10-01T13:31:14;98420.84;;;14.36;79.20
75247;BME280;63844;50.042;19.224;2022-10-01T13:33:52;98420.23;;;14.39;79.00
75247;BME280;63844;50.042;19.224;2022-10-01T13:36:30;98421.43;;;14.43;79.58
75247;BME280;63844;50.042;19.224;2022-10-01T13:38:57;98417.66;;;14.47;79.84
75247;BME280;63844;50.042;19.224;2022-10-01T13:41:31;98415.38;;;14.43;79.19
75247;BME280;63844;50.042;19.224;2022-10-01T13:46:46;98406.16;;;14.43;79.58
75247;BME280;63844;50.042;19.224;2022-10-01T13:49:24;98407.00;;;14.39;79.68
75247;BME280;63844;50.042;19.224;2022-10-01T13:51:52;98406.46;;;14.29;80.05
75247;BME280;63844;50.042;19.224;2022-10-01T13:54:44;98410.02;;;14.28;80.04
75247;BME280;63844;50.042;19.224;2022-10-01T14:00:00;98403.43;;;14.28;80.32
75247;BME280;63844;50.042;19.224;2022-10-01T14:02:31;98399.71;;;14.20;80.30
75247;BME280;63844;50.042;19.224;2022-10-01T14:07:55;98396.31;;;13.88;81.67
75247;BME280;63844;50.042;19.224;2022-10-01T14:10:33;98396.35;;;13.82;81.79
75247;BME280;63844;50.042;19.224;2022-10-01T14:13:02;98394.47;;;13.79;82.42
75247;BME280;63844;50.042;19.224;2022-10-01T14:15:48;98392.44;;;13.80;82.68
75247;BME280;63844;50.042;19.224;2022-10-01T14:18:29;98392.51;;;13.85;82.03
75247;BME280;63844;50.042;19.224;2022-10-01T14:26:36;98387.03;;;13.84;83.31
75247;BME280;63844;50.042;19.224;2022-10-01T14:32:11;98380.25;;;13.89;81.95
75247;BME280;63844;50.042;19.224;2022-10-01T14:37:20;98365.60;;;13.97;81.69
75247;BME280;63844;50.042;19.224;2022-10-01T14:40:00;98362.91;;;14.05;81.76
75247;BME280;63844;50.042;19.224;2022-10-01T14:42:26;98359.27;;;14.18;81.20
75247;BME280;63844;50.042;19.224;2022-10-01T14:44:53;98354.73;;;14.27;81.38